Time;durP1;ratioP1;P1;durP2;ratioP2;P2;SDS_P1;SDS_P2;PMS_P1;PMS_P2;Temp;Humidity;BMP_temperature;BMP_pressure;BME280_temperature;BME280_humidity;BME280_pressure;Samples;Min_cycle;Max_cycle;Signal;HPM_P1;HPM_P2
2022/07/08 00:01:51;;;;;;;6.10;5.00;;;;;;;;;;5041623;28;20194;-39
2022/07/08 00:04:18;;;;;;;5.73;4.07;;;;;;;;;;5040469;28;20701;-39
2022/07/08 00:06:44;;;;;;;6.47;4.13;;;;;;;;;;5035175;28;20550;-39
2022/07/08 00:09:10;;;;;;;6.83;4.50;;;;;;;;;;5044463;28;20186;-40
2022/07/08 00:11:37;;;;;;;5.77;4.70;;;;;;;;;;5042552;28;20643;-39
2022/07/08 00:14:03;;;;;;;5.13;4.63;;;;;;;;;;5038383;28;20400;-40
2022/07/08 00:16:30;;;;;;;6.57;5.37;;;;;;;;;;5042078;28;20732;-40
2022/07/08 00:18:56;;;;;;;5.00;4.50;;;;;;;;;;5042596;28;20216;-38
2022/07/08 00:21:22;;;;;;;5.90;4.87;;;;;;;;;;5034178;28;20665;-39
2022/07/08 00:23:48;;;;;;;5.30;4.80;;;;;;;;;;5042259;28;20198;-40
2022/07/08 00:26:14;;;;;;;6.57;5.70;;;;;;;;;;5044320;28;20649;-39
2022/07/08 00:28:40;;;;;;;7.83;5.20;;;;;;;;;;5039868;28;20171;-39
2022/07/08 00:31:06;;;;;;;10.47;5.77;;;;;;;;;;5042805;28;20190;-40
2022/07/08 00:33:32;;;;;;;7.20;5.20;;;;;;;;;;5043139;28;20646;-39
2022/07/08 00:35:59;;;;;;;7.33;6.33;;;;;;;;;;5038916;28;20800;-40
2022/07/08 00:38:25;;;;;;;6.17;5.60;;;;;;;;;;5040051;28;20384;-39
2022/07/08 00:40:51;;;;;;;8.27;6.80;;;;;;;;;;5039215;28;20183;-38
2022/07/08 00:43:35;;;;;;;8.20;7.23;;;;;;;;;;5041099;28;20218;-40
2022/07/08 00:46:02;;;;;;;8.33;6.50;;;;;;;;;;5041452;28;20175;-39
2022/07/08 00:48:28;;;;;;;8.03;7.13;;;;;;;;;;5035500;28;20182;-39
2022/07/08 00:50:54;;;;;;;8.37;6.83;;;;;;;;;;5040226;28;20178;-40
2022/07/08 00:53:20;;;;;;;8.87;6.10;;;;;;;;;;5044155;28;20546;-39
2022/07/08 00:55:46;;;;;;;9.43;7.20;;;;;;;;;;5045264;28;20922;-39
2022/07/08 00:58:13;;;;;;;7.47;6.53;;;;;;;;;;5043095;28;20183;-40
2022/07/08 01:00:39;;;;;;;7.30;5.90;;;;;;;;;;5042414;28;20243;-37
2022/07/08 01:03:05;;;;;;;6.23;5.63;;;;;;;;;;5044218;28;20497;-39
2022/07/08 01:05:31;;;;;;;8.10;6.20;;;;;;;;;;5043711;28;20186;-38
2022/07/08 01:07:57;;;;;;;6.47;5.87;;;;;;;;;;5043466;28;20625;-39
2022/07/08 01:10:23;;;;;;;7.00;6.20;;;;;;;;;;5039215;28;22031;-39
2022/07/08 01:12:50;;;;;;;8.03;6.53;;;;;;;;;;5041631;28;20931;-40
2022/07/08 01:15:16;;;;;;;8.47;6.77;;;;;;;;;;5040661;28;20190;-38
2022/07/08 01:17:46;;;;;;;9.17;5.80;;;;;;;;;;5045752;28;20587;-40
2022/07/08 01:20:13;;;;;;;8.20;7.00;;;;;;;;;;5035996;28;20176;-39
2022/07/08 01:22:39;;;;;;;7.23;6.53;;;;;;;;;;5042049;28;20710;-39
2022/07/08 01:25:06;;;;;;;9.10;8.17;;;;;;;;;;5043605;28;20203;-40
2022/07/08 01:27:32;;;;;;;7.90;7.20;;;;;;;;;;5040857;28;20179;-39
2022/07/08 01:29:58;;;;;;;9.10;7.00;;;;;;;;;;5039126;28;20180;-40
2022/07/08 01:32:32;;;;;;;9.30;8.20;;;;;;;;;;5044085;28;20716;-39
2022/07/08 01:34:58;;;;;;;9.30;7.40;;;;;;;;;;5044335;28;20744;-40
2022/07/08 01:37:24;;;;;;;7.43;6.63;;;;;;;;;;5043913;28;20183;-40
2022/07/08 01:39:50;;;;;;;8.67;7.53;;;;;;;;;;5040767;28;20563;-38
2022/07/08 01:42:17;;;;;;;11.60;7.73;;;;;;;;;;5042186;28;20644;-38
2022/07/08 01:44:43;;;;;;;10.33;7.70;;;;;;;;;;5040482;28;20205;-38
2022/07/08 01:47:09;;;;;;;7.93;7.10;;;;;;;;;;5045225;28;20234;-41
2022/07/08 01:49:36;;;;;;;8.57;7.67;;;;;;;;;;5032964;28;21041;-39
2022/07/08 01:52:02;;;;;;;8.23;6.73;;;;;;;;;;5038680;28;20182;-42
2022/07/08 01:54:28;;;;;;;9.17;7.33;;;;;;;;;;5038634;28;20276;-37
2022/07/08 01:57:13;;;;;;;8.70;6.87;;;;;;;;;;5036726;28;20425;-38
2022/07/08 01:59:39;;;;;;;12.70;8.17;;;;;;;;;;5040280;28;21144;-38
2022/07/08 02:02:05;;;;;;;11.93;9.47;;;;;;;;;;5044227;28;20187;-39
2022/07/08 02:04:32;;;;;;;9.87;8.03;;;;;;;;;;5041633;28;20284;-39
2022/07/08 02:06:58;;;;;;;10.67;8.63;;;;;;;;;;5043556;28;20761;-40
2022/07/08 02:09:24;;;;;;;12.80;8.13;;;;;;;;;;5045918;28;20174;-40
2022/07/08 02:14:34;;;;;;;9.57;8.60;;;;;;;;;;5040965;28;20198;-39
2022/07/08 02:17:01;;;;;;;15.30;9.40;;;;;;;;;;5045975;28;20182;-40
2022/07/08 02:19:27;;;;;;;11.17;10.00;;;;;;;;;;5046482;28;20186;-39
2022/07/08 02:21:53;;;;;;;13.70;12.17;;;;;;;;;;5044273;28;20895;-39
2022/07/08 02:24:19;;;;;;;13.20;11.80;;;;;;;;;;5040195;28;20202;-38
2022/07/08 02:26:45;;;;;;;12.90;11.37;;;;;;;;;;5041769;28;20371;-39
2022/07/08 02:29:11;;;;;;;12.10;10.90;;;;;;;;;;5043310;28;20354;-40
2022/07/08 02:31:37;;;;;;;19.10;12.50;;;;;;;;;;5043689;28;20204;-39
2022/07/08 02:34:03;;;;;;;12.70;11.50;;;;;;;;;;5043159;28;20219;-39
2022/07/08 02:36:29;;;;;;;12.90;11.67;;;;;;;;;;5044303;28;20186;-38
2022/07/08 02:38:55;;;;;;;13.23;11.63;;;;;;;;;;5038565;28;20458;-43
2022/07/08 02:41:21;;;;;;;16.97;12.77;;;;;;;;;;5043184;28;20273;-39
2022/07/08 02:43:47;;;;;;;13.03;11.73;;;;;;;;;;5043750;28;20230;-39
2022/07/08 02:46:14;;;;;;;13.37;11.97;;;;;;;;;;5043476;28;21082;-40
2022/07/08 02:48:40;;;;;;;18.47;12.13;;;;;;;;;;5043795;28;20171;-40
2022/07/08 02:51:06;;;;;;;12.17;10.93;;;;;;;;;;5042605;28;20312;-40
2022/07/08 02:53:32;;;;;;;14.30;11.90;;;;;;;;;;5041933;28;20471;-41
2022/07/08 02:55:58;;;;;;;14.30;12.07;;;;;;;;;;5043416;28;20531;-39
2022/07/08 02:58:24;;;;;;;13.60;11.87;;;;;;;;;;5046056;28;20404;-40
2022/07/08 03:00:50;;;;;;;17.47;15.37;;;;;;;;;;5043985;28;20293;-41
2022/07/08 03:03:16;;;;;;;16.97;15.17;;;;;;;;;;5043709;28;20283;-40
2022/07/08 03:05:42;;;;;;;16.33;14.73;;;;;;;;;;5048359;28;20614;-40
2022/07/08 03:08:09;;;;;;;14.17;12.77;;;;;;;;;;5036501;28;20183;-38
2022/07/08 03:10:35;;;;;;;13.37;11.97;;;;;;;;;;5028612;28;20341;-39
2022/07/08 03:13:01;;;;;;;15.93;14.33;;;;;;;;;;5042440;28;20181;-38
2022/07/08 03:15:27;;;;;;;13.57;12.20;;;;;;;;;;5040594;28;20186;-39
2022/07/08 03:17:53;;;;;;;13.70;12.40;;;;;;;;;;5044569;28;21210;-40
2022/07/08 03:20:19;;;;;;;14.90;13.07;;;;;;;;;;5045281;28;20623;-38
2022/07/08 03:22:46;;;;;;;14.60;13.13;;;;;;;;;;5038141;28;20205;-39
2022/07/08 03:25:12;;;;;;;14.27;12.87;;;;;;;;;;5042126;28;20210;-41
2022/07/08 03:27:38;;;;;;;14.17;12.70;;;;;;;;;;5041520;28;20431;-41
2022/07/08 03:30:05;;;;;;;16.10;13.63;;;;;;;;;;5043741;28;20290;-42
2022/07/08 03:32:31;;;;;;;16.20;14.43;;;;;;;;;;5047057;28;20627;-41
2022/07/08 03:34:58;;;;;;;15.80;14.20;;;;;;;;;;5042036;28;20182;-41
2022/07/08 03:37:24;;;;;;;14.93;13.47;;;;;;;;;;5040894;28;20715;-39
2022/07/08 03:39:50;;;;;;;16.77;14.37;;;;;;;;;;5043259;28;20212;-40
2022/07/08 03:42:17;;;;;;;17.47;13.27;;;;;;;;;;5044506;28;20174;-41
2022/07/08 03:44:43;;;;;;;15.90;14.40;;;;;;;;;;5043659;28;20234;-42
2022/07/08 03:47:09;;;;;;;14.97;13.43;;;;;;;;;;5041415;28;20218;-40
2022/07/08 03:49:35;;;;;;;18.70;15.10;;;;;;;;;;5043728;28;20179;-41
2022/07/08 03:52:01;;;;;;;14.80;12.97;;;;;;;;;;5044694;28;20616;-39
2022/07/08 03:54:28;;;;;;;15.63;14.00;;;;;;;;;;5041898;28;20734;-40
2022/07/08 03:56:54;;;;;;;15.03;13.53;;;;;;;;;;5045824;28;20494;-40
2022/07/08 03:59:20;;;;;;;15.27;13.77;;;;;;;;;;5041343;28;20232;-39
2022/07/08 04:01:46;;;;;;;16.90;15.03;;;;;;;;;;5044398;28;20803;-40
2022/07/08 04:04:12;;;;;;;16.33;14.73;;;;;;;;;;5045347;28;20202;-39
2022/07/08 04:06:38;;;;;;;20.50;18.47;;;;;;;;;;5033771;28;20556;-40
2022/07/08 04:09:04;;;;;;;23.13;20.40;;;;;;;;;;5041822;28;20296;-40
2022/07/08 04:11:31;;;;;;;22.13;19.93;;;;;;;;;;5044942;28;20171;-39
2022/07/08 04:13:57;;;;;;;21.87;19.67;;;;;;;;;;5041020;28;20293;-38
2022/07/08 04:16:23;;;;;;;26.17;23.77;;;;;;;;;;5042334;28;21248;-40
2022/07/08 04:18:49;;;;;;;26.57;22.23;;;;;;;;;;5046510;28;20197;-40
2022/07/08 04:21:15;;;;;;;23.00;20.67;;;;;;;;;;5042641;28;20175;-41
2022/07/08 04:23:41;;;;;;;25.70;23.03;;;;;;;;;;5036665;28;20261;-40
2022/07/08 04:26:08;;;;;;;23.17;20.87;;;;;;;;;;5035362;28;20185;-39
2022/07/08 04:28:34;;;;;;;22.37;20.07;;;;;;;;;;5044174;28;20880;-38
2022/07/08 04:31:00;;;;;;;24.63;22.23;;;;;;;;;;5046549;28;20193;-38
2022/07/08 04:33:27;;;;;;;25.33;19.90;;;;;;;;;;5050664;28;20213;-40
2022/07/08 04:35:53;;;;;;;22.40;20.30;;;;;;;;;;5047387;28;20594;-42
2022/07/08 04:38:19;;;;;;;24.33;21.73;;;;;;;;;;5042770;28;20291;-41
2022/07/08 04:40:45;;;;;;;23.80;21.40;;;;;;;;;;5042362;28;20247;-39
2022/07/08 04:43:12;;;;;;;24.60;22.10;;;;;;;;;;5040173;28;20183;-39
2022/07/08 04:45:39;;;;;;;25.40;22.67;;;;;;;;;;5040743;28;20459;-39
2022/07/08 04:48:05;;;;;;;24.37;21.87;;;;;;;;;;5041463;28;20182;-38
2022/07/08 04:50:31;;;;;;;24.10;21.70;;;;;;;;;;5043345;28;20706;-40
2022/07/08 04:52:58;;;;;;;24.53;22.07;;;;;;;;;;5043039;28;20785;-39
2022/07/08 04:55:30;;;;;;;34.10;29.83;;;;;;;;;;5049232;28;20513;-37
2022/07/08 04:58:01;;;;;;;29.03;26.03;;;;;;;;;;5043971;28;20179;-40
2022/07/08 05:00:27;;;;;;;33.23;29.30;;;;;;;;;;5043408;28;20571;-38
2022/07/08 05:02:54;;;;;;;39.83;34.20;;;;;;;;;;5046074;28;20729;-39
2022/07/08 05:05:20;;;;;;;35.90;32.00;;;;;;;;;;5045924;28;20207;-39
2022/07/08 05:07:49;;;;;;;39.73;33.27;;;;;;;;;;5044567;28;20628;-42
2022/07/08 05:10:20;;;;;;;33.70;30.10;;;;;;;;;;5044219;28;20175;-42
2022/07/08 05:12:46;;;;;;;43.43;36.17;;;;;;;;;;5048989;28;20179;-40
2022/07/08 05:15:12;;;;;;;49.60;39.67;;;;;;;;;;5044345;28;20205;-41
2022/07/08 05:17:39;;;;;;;46.57;38.63;;;;;;;;;;5034926;28;20244;-41
2022/07/08 05:20:06;;;;;;;42.03;34.43;;;;;;;;;;5039133;28;20179;-40
2022/07/08 05:22:32;;;;;;;34.53;30.47;;;;;;;;;;5049316;28;20412;-40
2022/07/08 05:24:58;;;;;;;33.67;30.07;;;;;;;;;;5042856;28;20578;-40
2022/07/08 05:27:25;;;;;;;31.20;27.93;;;;;;;;;;5046733;28;20167;-40
2022/07/08 05:29:51;;;;;;;37.90;28.93;;;;;;;;;;5044105;28;20500;-40
2022/07/08 05:32:17;;;;;;;35.63;28.03;;;;;;;;;;5041992;28;20731;-40
2022/07/08 05:34:44;;;;;;;37.43;26.00;;;;;;;;;;5047459;28;20179;-41
2022/07/08 05:37:11;;;;;;;31.20;26.13;;;;;;;;;;5048134;28;20186;-39
2022/07/08 05:39:37;;;;;;;33.17;26.63;;;;;;;;;;5047199;28;21199;-40
2022/07/08 05:42:03;;;;;;;28.30;24.43;;;;;;;;;;5049001;28;20486;-40
2022/07/08 05:44:30;;;;;;;29.93;26.40;;;;;;;;;;5050441;28;20355;-40
2022/07/08 05:46:56;;;;;;;35.33;28.43;;;;;;;;;;5049681;28;20213;-39
2022/07/08 05:49:23;;;;;;;36.30;27.50;;;;;;;;;;5047575;28;20428;-41
2022/07/08 05:51:49;;;;;;;34.77;29.50;;;;;;;;;;5046288;28;20282;-41
2022/07/08 05:54:15;;;;;;;39.33;33.70;;;;;;;;;;5048453;28;20183;-41
2022/07/08 05:56:41;;;;;;;36.97;31.20;;;;;;;;;;5051942;28;20191;-39
2022/07/08 05:59:07;;;;;;;35.40;31.20;;;;;;;;;;5049224;28;20297;-40
2022/07/08 06:01:33;;;;;;;38.60;27.77;;;;;;;;;;5045420;28;20179;-40
2022/07/08 06:03:59;;;;;;;32.40;26.33;;;;;;;;;;5051102;28;20238;-39
2022/07/08 06:06:25;;;;;;;28.63;25.33;;;;;;;;;;5049091;28;20884;-39
2022/07/08 06:08:51;;;;;;;23.83;17.73;;;;;;;;;;5049452;28;20179;-39
2022/07/08 06:11:17;;;;;;;15.83;13.57;;;;;;;;;;5046699;28;20183;-40
2022/07/08 06:13:43;;;;;;;15.43;12.67;;;;;;;;;;5044693;28;21018;-39
2022/07/08 06:16:10;;;;;;;13.53;10.57;;;;;;;;;;5040746;28;20179;-40
2022/07/08 06:18:36;;;;;;;18.10;14.97;;;;;;;;;;5041015;28;20202;-39
2022/07/08 06:21:02;;;;;;;19.87;14.77;;;;;;;;;;5043358;28;20491;-39
2022/07/08 06:23:28;;;;;;;24.37;18.53;;;;;;;;;;5039248;28;20630;-40
2022/07/08 06:25:54;;;;;;;25.07;19.17;;;;;;;;;;5035963;28;20183;-40
2022/07/08 06:28:20;;;;;;;22.07;17.73;;;;;;;;;;5038681;28;20209;-41
2022/07/08 06:30:46;;;;;;;29.80;21.57;;;;;;;;;;5040744;28;20453;-39
2022/07/08 06:33:12;;;;;;;23.87;19.90;;;;;;;;;;5034688;28;20171;-41
2022/07/08 06:35:39;;;;;;;20.40;18.30;;;;;;;;;;5039711;28;20201;-40
2022/07/08 06:38:05;;;;;;;22.60;19.13;;;;;;;;;;5039642;28;20392;-40
2022/07/08 06:40:31;;;;;;;19.27;17.00;;;;;;;;;;5036160;28;20183;-40
2022/07/08 06:42:57;;;;;;;25.50;17.73;;;;;;;;;;5029064;28;20883;-41
2022/07/08 06:45:23;;;;;;;24.23;17.77;;;;;;;;;;5041205;28;20198;-40
2022/07/08 06:47:49;;;;;;;23.40;19.63;;;;;;;;;;5035086;28;20657;-39
2022/07/08 06:50:15;;;;;;;20.87;16.67;;;;;;;;;;5042960;28;20413;-41
2022/07/08 06:52:41;;;;;;;20.27;16.63;;;;;;;;;;5042746;28;20639;-40
2022/07/08 06:55:08;;;;;;;19.37;17.37;;;;;;;;;;5037312;28;20593;-42
2022/07/08 06:57:34;;;;;;;20.47;16.80;;;;;;;;;;5039572;28;20188;-43
2022/07/08 07:00:00;;;;;;;20.77;16.63;;;;;;;;;;5042438;28;20187;-41
2022/07/08 07:02:27;;;;;;;20.20;16.43;;;;;;;;;;5038915;28;20183;-43
2022/07/08 07:04:53;;;;;;;19.97;15.27;;;;;;;;;;5043114;28;20580;-43
2022/07/08 07:07:19;;;;;;;21.30;15.70;;;;;;;;;;5042294;28;20178;-41
2022/07/08 07:09:45;;;;;;;17.83;14.63;;;;;;;;;;5038443;28;20383;-41
2022/07/08 07:12:11;;;;;;;19.57;16.37;;;;;;;;;;5039685;28;20175;-41
2022/07/08 07:14:37;;;;;;;18.97;15.37;;;;;;;;;;5040697;28;20189;-41
2022/07/08 07:17:03;;;;;;;20.97;15.50;;;;;;;;;;5045784;28;20431;-40
2022/07/08 07:19:29;;;;;;;17.73;14.13;;;;;;;;;;5050687;28;20191;-41
2022/07/08 07:21:56;;;;;;;16.57;13.93;;;;;;;;;;5045348;28;20598;-41
2022/07/08 07:24:22;;;;;;;17.40;13.10;;;;;;;;;;5044105;28;20736;-41
2022/07/08 07:26:48;;;;;;;20.20;14.30;;;;;;;;;;5040735;28;21064;-41
2022/07/08 07:29:15;;;;;;;20.43;13.70;;;;;;;;;;5039989;28;20171;-40
2022/07/08 07:31:41;;;;;;;16.63;12.83;;;;;;;;;;5042005;28;20190;-41
2022/07/08 07:34:08;;;;;;;14.30;12.57;;;;;;;;;;5043662;28;20256;-41
2022/07/08 07:36:34;;;;;;;16.70;12.73;;;;;;;;;;5043553;28;20649;-42
2022/07/08 07:39:00;;;;;;;15.20;12.13;;;;;;;;;;5043377;28;21011;-42
2022/07/08 07:41:27;;;;;;;16.90;11.87;;;;;;;;;;5042466;28;20618;-41
2022/07/08 07:43:53;;;;;;;17.27;12.27;;;;;;;;;;5039130;28;20207;-41
2022/07/08 07:46:19;;;;;;;17.03;12.60;;;;;;;;;;5044663;28;20183;-40
2022/07/08 07:48:45;;;;;;;19.27;14.00;;;;;;;;;;5041031;28;20606;-43
2022/07/08 07:51:11;;;;;;;14.60;12.53;;;;;;;;;;5042473;28;20174;-43
2022/07/08 07:53:37;;;;;;;15.70;11.40;;;;;;;;;;5041793;28;21583;-42
2022/07/08 07:56:04;;;;;;;15.33;11.67;;;;;;;;;;5043262;28;20179;-43
2022/07/08 07:58:30;;;;;;;22.13;12.13;;;;;;;;;;5039540;28;20738;-43
2022/07/08 08:00:56;;;;;;;15.27;11.73;;;;;;;;;;5036809;28;20182;-43
2022/07/08 08:03:22;;;;;;;16.00;11.50;;;;;;;;;;5043641;28;20486;-43
2022/07/08 08:05:48;;;;;;;15.07;12.40;;;;;;;;;;5052776;28;20645;-43
2022/07/08 08:08:14;;;;;;;12.83;11.47;;;;;;;;;;5050833;28;20209;-41
2022/07/08 08:10:40;;;;;;;16.77;12.67;;;;;;;;;;5047943;28;20846;-40
2022/07/08 08:13:07;;;;;;;16.63;10.47;;;;;;;;;;5043371;28;20403;-42
2022/07/08 08:15:33;;;;;;;16.23;10.30;;;;;;;;;;5048410;28;20181;-41
2022/07/08 08:17:59;;;;;;;16.73;11.20;;;;;;;;;;5048692;28;20206;-41
2022/07/08 08:20:26;;;;;;;15.00;10.30;;;;;;;;;;5048873;28;20553;-42
2022/07/08 08:22:52;;;;;;;15.20;10.50;;;;;;;;;;5048287;28;21222;-42
2022/07/08 08:25:19;;;;;;;16.73;10.93;;;;;;;;;;5047752;28;20261;-41
2022/07/08 08:27:45;;;;;;;11.47;8.93;;;;;;;;;;5046007;28;20685;-41
2022/07/08 08:30:12;;;;;;;10.33;8.93;;;;;;;;;;5045621;28;20179;-42
2022/07/08 08:32:38;;;;;;;12.77;9.20;;;;;;;;;;5046887;28;20730;-42
2022/07/08 08:35:05;;;;;;;14.17;9.17;;;;;;;;;;5049048;28;20186;-42
2022/07/08 08:37:31;;;;;;;12.10;7.03;;;;;;;;;;5051403;28;20549;-42
2022/07/08 08:40:01;;;;;;;12.77;7.70;;;;;;;;;;5051430;28;20633;-42
2022/07/08 08:42:28;;;;;;;11.80;7.17;;;;;;;;;;5055874;28;20174;-42
2022/07/08 08:44:54;;;;;;;12.00;6.80;;;;;;;;;;5055375;28;20203;-41
2022/07/08 08:47:24;;;;;;;10.73;6.20;;;;;;;;;;5047700;28;20180;-42
2022/07/08 08:49:50;;;;;;;9.80;4.70;;;;;;;;;;5053863;28;20179;-42
2022/07/08 08:52:16;;;;;;;10.97;5.97;;;;;;;;;;5048366;28;20333;-42
2022/07/08 08:54:42;;;;;;;9.60;5.70;;;;;;;;;;5046166;28;20969;-42
2022/07/08 08:57:10;;;;;;;6.53;4.60;;;;;;;;;;5049643;28;20201;-41
2022/07/08 08:59:36;;;;;;;7.73;5.17;;;;;;;;;;5048301;28;20170;-42
2022/07/08 09:02:02;;;;;;;7.33;4.70;;;;;;;;;;5046757;28;20186;-42
2022/07/08 09:04:33;;;;;;;6.97;4.20;;;;;;;;;;5053208;28;20219;-42
2022/07/08 09:07:00;;;;;;;10.20;4.87;;;;;;;;;;5045428;28;20179;-42
2022/07/08 09:09:26;;;;;;;14.17;4.40;;;;;;;;;;5046292;28;20175;-41
2022/07/08 09:11:53;;;;;;;12.07;4.30;;;;;;;;;;5045554;28;20172;-42
2022/07/08 09:14:23;;;;;;;11.03;4.17;;;;;;;;;;5047460;28;20242;-42
2022/07/08 09:17:08;;;;;;;8.30;4.80;;;;;;;;;;5046659;28;20208;-42
2022/07/08 09:19:34;;;;;;;8.07;4.13;;;;;;;;;;5045906;28;20195;-42
2022/07/08 09:22:01;;;;;;;7.90;4.53;;;;;;;;;;5045402;28;20183;-42
2022/07/08 09:24:27;;;;;;;8.13;4.33;;;;;;;;;;5045489;28;20200;-41
2022/07/08 09:26:57;;;;;;;8.70;4.13;;;;;;;;;;5043496;28;20188;-41
2022/07/08 09:29:23;;;;;;;6.47;3.30;;;;;;;;;;5048562;28;20178;-42
2022/07/08 09:31:50;;;;;;;8.17;3.77;;;;;;;;;;5045913;28;20278;-41
2022/07/08 09:34:20;;;;;;;8.60;3.50;;;;;;;;;;5044665;28;20182;-41
2022/07/08 09:36:47;;;;;;;6.10;3.20;;;;;;;;;;5043776;28;20196;-41
2022/07/08 09:39:26;;;;;;;8.77;3.03;;;;;;;;;;5047041;28;20198;-41
2022/07/08 09:41:52;;;;;;;7.53;3.40;;;;;;;;;;5050861;28;20176;-41
2022/07/08 09:44:19;;;;;;;4.13;2.67;;;;;;;;;;5044482;28;21275;-41
2022/07/08 09:46:47;;;;;;;6.87;2.77;;;;;;;;;;5046758;28;20175;-42
2022/07/08 09:49:30;;;;;;;7.43;2.77;;;;;;;;;;5043102;28;20177;-42
2022/07/08 09:51:59;;;;;;;3.13;2.07;;;;;;;;;;5047347;28;20178;-42
2022/07/08 09:54:26;;;;;;;3.20;1.60;;;;;;;;;;5043964;28;20182;-42
2022/07/08 09:57:02;;;;;;;4.40;2.03;;;;;;;;;;5048532;28;20249;-42
2022/07/08 09:59:29;;;;;;;7.10;2.33;;;;;;;;;;5047662;28;20571;-42
2022/07/08 10:01:55;;;;;;;4.60;2.20;;;;;;;;;;5047324;28;20212;-42
2022/07/08 10:04:24;;;;;;;9.37;2.07;;;;;;;;;;5049219;28;20232;-42
2022/07/08 10:06:51;;;;;;;4.73;1.97;;;;;;;;;;5047659;28;20254;-42
2022/07/08 10:09:17;;;;;;;4.93;2.50;;;;;;;;;;5048863;28;20250;-43
2022/07/08 10:11:44;;;;;;;3.90;1.80;;;;;;;;;;5048210;28;20174;-42
2022/07/08 10:14:10;;;;;;;3.70;2.00;;;;;;;;;;5047247;28;20183;-42
2022/07/08 10:16:39;;;;;;;4.87;2.00;;;;;;;;;;5045636;28;20293;-42
2022/07/08 10:19:08;;;;;;;3.87;1.50;;;;;;;;;;5048240;28;21684;-42
2022/07/08 10:21:35;;;;;;;4.27;1.67;;;;;;;;;;5047174;28;20576;-42
2022/07/08 10:24:02;;;;;;;3.43;1.40;;;;;;;;;;5047332;28;20954;-40
2022/07/08 10:26:29;;;;;;;4.77;2.20;;;;;;;;;;5044603;28;20167;-42
2022/07/08 10:29:04;;;;;;;4.87;2.07;;;;;;;;;;5046316;28;20175;-42
2022/07/08 10:31:30;;;;;;;3.67;1.77;;;;;;;;;;5042832;28;20947;-42
2022/07/08 10:34:00;;;;;;;3.93;1.50;;;;;;;;;;5047036;28;21064;-42
2022/07/08 10:36:26;;;;;;;3.57;1.73;;;;;;;;;;5053808;28;20175;-42
2022/07/08 10:38:54;;;;;;;4.23;1.47;;;;;;;;;;5049092;28;20208;-42
2022/07/08 10:41:21;;;;;;;4.87;1.93;;;;;;;;;;5044794;28;21148;-42
2022/07/08 10:43:51;;;;;;;2.80;1.40;;;;;;;;;;5050354;28;20693;-42
2022/07/08 10:46:18;;;;;;;5.93;1.87;;;;;;;;;;5046425;28;20171;-42
2022/07/08 10:48:48;;;;;;;6.40;1.77;;;;;;;;;;5044114;28;20179;-41
2022/07/08 10:51:20;;;;;;;3.20;1.47;;;;;;;;;;5045736;28;20176;-42
2022/07/08 10:53:52;;;;;;;5.87;1.40;;;;;;;;;;5050155;28;20907;-42
2022/07/08 10:56:36;;;;;;;3.13;1.47;;;;;;;;;;5045615;28;21200;-40
2022/07/08 10:59:16;;;;;;;2.57;1.33;;;;;;;;;;5046318;28;20178;-42
2022/07/08 11:01:43;;;;;;;4.07;1.40;;;;;;;;;;5049307;28;20178;-42
2022/07/08 11:04:25;;;;;;;2.47;1.20;;;;;;;;;;5050421;28;20762;-42
2022/07/08 11:06:51;;;;;;;3.93;1.30;;;;;;;;;;5052060;28;20281;-42
2022/07/08 11:09:18;;;;;;;4.00;1.43;;;;;;;;;;5048775;28;20179;-41
2022/07/08 11:11:45;;;;;;;3.60;1.30;;;;;;;;;;5049900;28;20179;-42
2022/07/08 11:14:13;;;;;;;3.37;1.20;;;;;;;;;;5049943;28;20229;-42
2022/07/08 11:16:39;;;;;;;3.10;1.23;;;;;;;;;;5044659;28;21342;-40
2022/07/08 11:19:06;;;;;;;2.63;1.00;;;;;;;;;;5044144;28;20221;-40
2022/07/08 11:21:32;;;;;;;2.27;0.90;;;;;;;;;;5047573;28;21442;-42
2022/07/08 11:23:58;;;;;;;2.77;1.40;;;;;;;;;;5048059;28;20451;-39
2022/07/08 11:26:26;;;;;;;2.80;1.10;;;;;;;;;;5052516;28;20204;-41
2022/07/08 11:28:52;;;;;;;3.03;1.33;;;;;;;;;;5050315;28;20185;-41
2022/07/08 11:31:25;;;;;;;2.83;1.40;;;;;;;;;;5047774;28;20580;-41
2022/07/08 11:33:51;;;;;;;2.50;1.20;;;;;;;;;;5056188;28;20380;-41
2022/07/08 11:36:18;;;;;;;2.97;1.30;;;;;;;;;;5045766;28;20186;-41
2022/07/08 11:38:45;;;;;;;1.73;1.10;;;;;;;;;;5040607;28;20387;-41
2022/07/08 11:41:12;;;;;;;6.13;1.53;;;;;;;;;;5053153;28;20670;-41
2022/07/08 11:43:38;;;;;;;2.80;1.30;;;;;;;;;;5048049;28;20791;-41
2022/07/08 11:46:14;;;;;;;3.50;1.30;;;;;;;;;;5051162;28;20616;-41
2022/07/08 11:48:40;;;;;;;2.87;1.37;;;;;;;;;;5048783;28;20518;-41
2022/07/08 11:51:06;;;;;;;3.27;1.13;;;;;;;;;;5041190;28;20487;-43
2022/07/08 11:53:32;;;;;;;2.23;1.10;;;;;;;;;;5044176;28;20210;-43
2022/07/08 11:55:59;;;;;;;3.13;1.00;;;;;;;;;;5049251;28;20483;-43
2022/07/08 11:58:25;;;;;;;2.60;1.20;;;;;;;;;;5046951;28;21743;-41
2022/07/08 12:00:51;;;;;;;1.43;1.00;;;;;;;;;;5042105;28;20204;-41
2022/07/08 12:03:18;;;;;;;1.73;0.93;;;;;;;;;;5041855;28;20540;-41
2022/07/08 12:05:44;;;;;;;1.77;1.00;;;;;;;;;;5049008;28;20201;-41
2022/07/08 12:08:13;;;;;;;1.83;0.80;;;;;;;;;;5050879;28;20579;-41
2022/07/08 12:10:39;;;;;;;3.00;1.00;;;;;;;;;;5049019;28;20518;-41
2022/07/08 12:13:05;;;;;;;1.50;0.90;;;;;;;;;;5045462;28;20630;-41
2022/07/08 12:15:35;;;;;;;5.40;1.10;;;;;;;;;;5051294;28;21140;-41
2022/07/08 12:18:02;;;;;;;2.20;0.80;;;;;;;;;;5046981;28;20215;-41
2022/07/08 12:20:35;;;;;;;3.83;1.20;;;;;;;;;;5049639;28;20673;-41
2022/07/08 12:23:01;;;;;;;3.00;1.10;;;;;;;;;;5050268;28;20479;-41
2022/07/08 12:25:28;;;;;;;1.83;0.90;;;;;;;;;;5038157;28;21309;-41
2022/07/08 12:27:58;;;;;;;3.00;1.33;;;;;;;;;;5041177;28;20959;-41
2022/07/08 12:30:26;;;;;;;3.13;1.00;;;;;;;;;;5040356;28;20683;-42
2022/07/08 12:32:52;;;;;;;2.90;1.07;;;;;;;;;;5040964;28;20209;-41
2022/07/08 12:35:18;;;;;;;4.67;0.90;;;;;;;;;;5041368;28;22761;-42
2022/07/08 12:37:45;;;;;;;2.13;1.30;;;;;;;;;;5044787;28;20854;-42
2022/07/08 12:40:14;;;;;;;1.87;1.03;;;;;;;;;;5047534;28;20183;-44
2022/07/08 12:42:40;;;;;;;2.50;1.20;;;;;;;;;;5043838;28;20468;-43
2022/07/08 12:45:16;;;;;;;1.80;1.27;;;;;;;;;;5047952;28;20206;-41
2022/07/08 12:47:42;;;;;;;1.03;0.90;;;;;;;;;;5042669;28;20181;-43
2022/07/08 12:50:09;;;;;;;2.70;1.30;;;;;;;;;;5044582;28;20372;-43
2022/07/08 12:52:35;;;;;;;3.80;1.00;;;;;;;;;;5054549;28;20411;-42
2022/07/08 12:55:01;;;;;;;3.50;1.10;;;;;;;;;;5055173;28;20642;-43
2022/07/08 12:57:27;;;;;;;3.23;0.90;;;;;;;;;;5050842;28;20183;-43
2022/07/08 12:59:53;;;;;;;2.43;1.07;;;;;;;;;;5047960;28;20190;-43
2022/07/08 13:02:19;;;;;;;2.23;1.20;;;;;;;;;;5049917;28;20324;-43
2022/07/08 13:04:45;;;;;;;3.33;1.00;;;;;;;;;;5050220;28;20842;-43
2022/07/08 13:07:12;;;;;;;2.83;1.17;;;;;;;;;;5051965;28;20186;-42
2022/07/08 13:09:38;;;;;;;1.50;1.10;;;;;;;;;;5054551;28;20180;-43
2022/07/08 13:12:05;;;;;;;3.30;0.97;;;;;;;;;;5049496;28;20917;-43
2022/07/08 13:14:31;;;;;;;3.33;1.10;;;;;;;;;;5054124;28;20183;-42
2022/07/08 13:16:57;;;;;;;1.07;0.90;;;;;;;;;;5058462;28;20242;-42
2022/07/08 13:19:23;;;;;;;2.20;1.10;;;;;;;;;;5053234;28;22101;-42
2022/07/08 13:21:49;;;;;;;5.10;1.23;;;;;;;;;;5055940;28;20304;-42
2022/07/08 13:24:16;;;;;;;3.03;1.03;;;;;;;;;;5053353;28;20324;-42
2022/07/08 13:26:42;;;;;;;1.33;1.00;;;;;;;;;;5050527;28;20285;-42
2022/07/08 13:29:08;;;;;;;2.00;1.00;;;;;;;;;;5051400;28;20177;-42
2022/07/08 13:31:34;;;;;;;3.20;1.07;;;;;;;;;;5043027;28;20177;-42
2022/07/08 13:34:00;;;;;;;4.20;1.00;;;;;;;;;;5050782;28;20179;-41
2022/07/08 13:36:27;;;;;;;2.50;0.80;;;;;;;;;;5049950;28;20181;-41
2022/07/08 13:38:53;;;;;;;2.77;0.97;;;;;;;;;;5040391;28;21742;-42
2022/07/08 13:41:20;;;;;;;2.57;0.97;;;;;;;;;;5042925;28;21773;-42
2022/07/08 13:43:46;;;;;;;2.07;1.10;;;;;;;;;;5051442;28;20184;-40
2022/07/08 13:46:12;;;;;;;1.37;0.90;;;;;;;;;;5046104;28;20184;-42
2022/07/08 13:48:38;;;;;;;4.07;0.90;;;;;;;;;;5049922;28;20179;-41
2022/07/08 13:51:04;;;;;;;1.77;1.10;;;;;;;;;;5050417;28;20172;-41
2022/07/08 13:53:31;;;;;;;1.47;0.90;;;;;;;;;;5045783;28;20177;-42
2022/07/08 13:55:57;;;;;;;1.17;0.90;;;;;;;;;;5049162;28;20177;-41
2022/07/08 13:58:23;;;;;;;3.00;1.33;;;;;;;;;;5054955;28;20185;-41
2022/07/08 14:00:49;;;;;;;1.20;1.00;;;;;;;;;;5040083;28;20188;-42
2022/07/08 14:03:15;;;;;;;1.80;0.83;;;;;;;;;;5041004;28;20181;-43
2022/07/08 14:05:41;;;;;;;1.00;0.80;;;;;;;;;;5041426;28;20220;-42
2022/07/08 14:08:07;;;;;;;1.83;1.00;;;;;;;;;;5039362;28;20185;-42
2022/07/08 14:10:33;;;;;;;1.77;0.80;;;;;;;;;;5041105;28;20178;-42
2022/07/08 14:13:00;;;;;;;0.73;0.70;;;;;;;;;;5048128;28;21837;-42
2022/07/08 14:15:26;;;;;;;2.73;0.90;;;;;;;;;;5044499;28;20174;-42
2022/07/08 14:17:52;;;;;;;0.90;0.70;;;;;;;;;;5041662;28;20229;-42
2022/07/08 14:20:18;;;;;;;2.33;0.87;;;;;;;;;;5045555;28;20412;-42
2022/07/08 14:22:44;;;;;;;3.17;0.80;;;;;;;;;;5041616;28;20944;-42
2022/07/08 14:25:10;;;;;;;1.70;0.80;;;;;;;;;;5043201;28;20310;-42
2022/07/08 14:27:36;;;;;;;3.50;1.00;;;;;;;;;;5040436;28;21002;-42
2022/07/08 14:30:03;;;;;;;1.27;0.67;;;;;;;;;;5043681;28;20175;-42
2022/07/08 14:32:29;;;;;;;1.63;0.73;;;;;;;;;;5042113;28;20205;-42